Time;durP1;ratioP1;P1;durP2;ratioP2;P2;SDS_P1;SDS_P2;PMS_P1;PMS_P2;Temp;Humidity;BMP_temperature;BMP_pressure;BME280_temperature;BME280_humidity;BME280_pressure;Samples;Min_cycle;Max_cycle;Signal;HPM_P1;HPM_P2
2024/01/16 00:02:17;;;;;;;10.00;6.73;;;;;;;;;;2611779;54;20383;-75
2024/01/16 00:07:47;;;;;;;40.77;10.30;;;;;;;;;;2611402;39;20865;-75
2024/01/16 00:13:16;;;;;;;12.97;6.07;;;;;;;;;;2613722;54;20371;-75
2024/01/16 00:18:46;;;;;;;15.87;7.13;;;;;;;;;;2613333;54;20370;-74
2024/01/16 00:24:16;;;;;;;11.67;7.27;;;;;;;;;;2613666;39;21065;-75
2024/01/16 00:29:45;;;;;;;20.93;10.70;;;;;;;;;;2614071;54;20371;-75
2024/01/16 00:35:15;;;;;;;16.60;10.10;;;;;;;;;;2611567;54;20383;-76
2024/01/16 00:40:44;;;;;;;16.37;9.30;;;;;;;;;;2612354;54;20553;-77
2024/01/16 00:46:14;;;;;;;7.40;5.73;;;;;;;;;;2613161;54;20944;-77
2024/01/16 00:51:44;;;;;;;11.57;5.90;;;;;;;;;;2613736;54;20407;-77
2024/01/16 00:57:16;;;;;;;11.93;8.70;;;;;;;;;;2612373;54;20391;-76
2024/01/16 01:02:45;;;;;;;5.27;4.33;;;;;;;;;;2612217;54;20418;-77
2024/01/16 01:08:15;;;;;;;9.70;6.37;;;;;;;;;;2612819;54;20362;-76
2024/01/16 01:13:45;;;;;;;9.00;5.73;;;;;;;;;;2612562;54;20386;-76
2024/01/16 01:19:15;;;;;;;14.40;7.70;;;;;;;;;;2614759;54;20383;-76
2024/01/16 01:24:45;;;;;;;7.07;5.10;;;;;;;;;;2613783;54;21017;-77
2024/01/16 01:30:14;;;;;;;11.73;6.53;;;;;;;;;;2612639;54;20342;-77
2024/01/16 01:41:51;;;;;;;13.43;8.70;;;;;;;;;;2614717;54;20362;-75
2024/01/16 01:47:21;;;;;;;13.00;7.90;;;;;;;;;;2614965;54;20364;-77
2024/01/16 01:52:50;;;;;;;6.00;5.40;;;;;;;;;;2615241;54;20390;-76
2024/01/16 01:58:20;;;;;;;9.00;5.70;;;;;;;;;;2614768;54;20349;-76
2024/01/16 02:03:50;;;;;;;16.13;8.00;;;;;;;;;;2612827;54;20400;-77
2024/01/16 02:09:20;;;;;;;6.53;4.00;;;;;;;;;;2614777;54;20934;-75
2024/01/16 02:14:50;;;;;;;12.47;6.93;;;;;;;;;;2615032;54;20383;-76
2024/01/16 02:20:20;;;;;;;11.50;6.83;;;;;;;;;;2615824;54;20375;-77
2024/01/16 02:25:50;;;;;;;14.13;7.40;;;;;;;;;;2614913;54;20483;-76
2024/01/16 02:31:19;;;;;;;10.30;5.33;;;;;;;;;;2615130;54;20350;-75
2024/01/16 02:42:56;;;;;;;17.23;8.90;;;;;;;;;;2614587;54;20494;-76
2024/01/16 02:48:26;;;;;;;9.20;6.00;;;;;;;;;;2614816;54;20412;-76
2024/01/16 02:53:55;;;;;;;6.67;4.50;;;;;;;;;;2613741;54;20374;-76
2024/01/16 02:59:25;;;;;;;10.87;7.10;;;;;;;;;;2614025;54;20493;-76
2024/01/16 03:04:54;;;;;;;4.93;3.53;;;;;;;;;;2614527;46;20821;-76
2024/01/16 03:10:24;;;;;;;5.87;3.90;;;;;;;;;;2614879;54;20511;-78
2024/01/16 03:15:54;;;;;;;7.03;4.70;;;;;;;;;;2614466;54;20396;-76
2024/01/16 03:21:24;;;;;;;18.63;7.80;;;;;;;;;;2614564;54;20370;-74
2024/01/16 03:26:53;;;;;;;15.60;6.17;;;;;;;;;;2613334;54;20495;-76
2024/01/16 03:32:23;;;;;;;4.07;3.47;;;;;;;;;;2614254;54;20411;-75
2024/01/16 03:44:00;;;;;;;8.83;6.67;;;;;;;;;;2613713;54;20407;-76
2024/01/16 03:49:30;;;;;;;11.63;5.67;;;;;;;;;;2613371;54;20412;-76
2024/01/16 03:55:00;;;;;;;6.20;4.30;;;;;;;;;;2613405;54;20361;-76
2024/01/16 04:00:29;;;;;;;11.90;9.10;;;;;;;;;;2612771;54;20396;-75
2024/01/16 04:05:59;;;;;;;14.30;8.20;;;;;;;;;;2612858;54;20366;-76
2024/01/16 04:11:29;;;;;;;12.33;8.70;;;;;;;;;;2611558;54;20466;-76
2024/01/16 04:16:59;;;;;;;16.83;9.70;;;;;;;;;;2613770;54;20386;-76
2024/01/16 04:22:28;;;;;;;11.67;7.60;;;;;;;;;;2613497;54;20391;-76
2024/01/16 04:27:58;;;;;;;10.80;6.97;;;;;;;;;;2612914;54;20452;-76
2024/01/16 04:33:27;;;;;;;11.53;6.20;;;;;;;;;;2613417;54;20427;-75
2024/01/16 04:42:38;;;;;;;16.33;10.47;;;;;;;;;;2614396;39;20859;-75
2024/01/16 04:48:08;;;;;;;8.87;5.60;;;;;;;;;;2614046;54;20399;-74
2024/01/16 04:53:38;;;;;;;17.57;11.03;;;;;;;;;;2613088;54;20366;-75
2024/01/16 04:59:09;;;;;;;6.67;3.83;;;;;;;;;;2613558;54;21297;-75
2024/01/16 05:04:39;;;;;;;14.53;8.90;;;;;;;;;;2613366;54;20391;-74
2024/01/16 05:10:15;;;;;;;16.50;10.57;;;;;;;;;;2613628;54;20411;-76
2024/01/16 05:15:45;;;;;;;21.80;10.90;;;;;;;;;;2613853;54;20378;-76
2024/01/16 05:21:14;;;;;;;9.67;6.70;;;;;;;;;;2615081;39;20770;-74
2024/01/16 05:26:44;;;;;;;10.03;6.80;;;;;;;;;;2614280;54;20365;-76
2024/01/16 05:32:14;;;;;;;16.77;8.20;;;;;;;;;;2615067;54;20374;-75
2024/01/16 05:37:43;;;;;;;20.80;7.43;;;;;;;;;;2613808;54;20382;-77
2024/01/16 05:43:14;;;;;;;8.63;5.70;;;;;;;;;;2613326;54;20519;-76
2024/01/16 05:48:46;;;;;;;11.47;7.90;;;;;;;;;;2615120;54;20370;-76
2024/01/16 05:54:15;;;;;;;28.97;7.83;;;;;;;;;;2613815;54;20369;-76
2024/01/16 05:59:45;;;;;;;11.30;6.17;;;;;;;;;;2614100;39;20547;-77
2024/01/16 06:05:14;;;;;;;5.67;4.20;;;;;;;;;;2614610;54;20443;-76
2024/01/16 06:10:44;;;;;;;4.10;2.60;;;;;;;;;;2614577;54;21001;-75
2024/01/16 06:16:14;;;;;;;5.83;2.50;;;;;;;;;;2612930;54;20441;-76
2024/01/16 06:21:43;;;;;;;17.83;5.97;;;;;;;;;;2614795;31;20792;-76
2024/01/16 06:27:18;;;;;;;6.97;5.33;;;;;;;;;;2613564;54;20346;-77
2024/01/16 06:32:48;;;;;;;24.30;9.50;;;;;;;;;;2614897;54;20397;-76
2024/01/16 06:38:18;;;;;;;23.90;11.67;;;;;;;;;;2613398;54;20370;-77
2024/01/16 06:43:48;;;;;;;17.67;10.90;;;;;;;;;;2613542;54;20513;-76
2024/01/16 06:49:18;;;;;;;20.77;11.00;;;;;;;;;;2613915;54;20408;-76
2024/01/16 06:54:47;;;;;;;21.50;13.63;;;;;;;;;;2614100;54;20398;-75
2024/01/16 06:57:32;;;;;;;20.70;11.13;;;;;;;;;;2613827;47;20970;-76
2024/01/16 06:59:58;;;;;;;22.90;13.37;;;;;;;;;;2614039;47;20395;-75
2024/01/16 07:05:29;;;;;;;19.40;10.43;;;;;;;;;;2611693;54;20370;-76
2024/01/16 07:10:59;;;;;;;25.83;14.60;;;;;;;;;;2614283;54;20483;-76
2024/01/16 07:16:28;;;;;;;14.70;9.83;;;;;;;;;;2613226;54;20411;-76
2024/01/16 07:21:58;;;;;;;23.10;12.90;;;;;;;;;;2613669;54;20415;-76
2024/01/16 07:27:28;;;;;;;20.07;9.97;;;;;;;;;;2613382;54;20363;-75
2024/01/16 07:32:57;;;;;;;15.60;7.03;;;;;;;;;;2613327;54;20873;-75
2024/01/16 07:38:27;;;;;;;17.53;8.60;;;;;;;;;;2614422;54;20439;-74
2024/01/16 07:50:04;;;;;;;15.10;6.80;;;;;;;;;;2613374;54;20407;-75
2024/01/16 07:55:34;;;;;;;14.57;8.87;;;;;;;;;;2609540;39;21055;-77
2024/01/16 08:01:04;;;;;;;8.77;7.53;;;;;;;;;;2612032;54;20363;-76
2024/01/16 08:06:34;;;;;;;11.97;8.60;;;;;;;;;;2614264;54;20922;-75
2024/01/16 08:09:20;;;;;;;7.83;7.07;;;;;;;;;;2613320;51;20431;-76
2024/01/16 08:11:46;;;;;;;9.80;5.97;;;;;;;;;;2614034;54;20379;-76
2024/01/16 08:17:16;;;;;;;7.10;5.00;;;;;;;;;;2614785;54;20949;-76
2024/01/16 08:22:45;;;;;;;4.80;4.10;;;;;;;;;;2614407;54;20359;-76
2024/01/16 08:28:15;;;;;;;6.07;4.23;;;;;;;;;;2614543;54;20342;-77
2024/01/16 08:33:45;;;;;;;10.37;5.00;;;;;;;;;;2614662;54;20387;-77
2024/01/16 08:39:16;;;;;;;3.93;2.90;;;;;;;;;;2614796;54;21050;-76
2024/01/16 08:44:46;;;;;;;13.67;4.30;;;;;;;;;;2615311;54;20466;-76
2024/01/16 08:50:16;;;;;;;3.33;2.83;;;;;;;;;;2614663;54;20366;-76
2024/01/16 08:53:01;;;;;;;5.30;3.63;;;;;;;;;;2614088;47;20415;-76
2024/01/16 08:55:27;;;;;;;2.93;2.63;;;;;;;;;;2613895;39;20858;-77
2024/01/16 09:00:56;;;;;;;3.97;3.20;;;;;;;;;;2614990;54;20964;-77
2024/01/16 09:06:26;;;;;;;3.73;3.43;;;;;;;;;;2614175;54;20937;-76
2024/01/16 09:11:57;;;;;;;4.57;2.90;;;;;;;;;;2614831;54;20353;-75
2024/01/16 09:17:27;;;;;;;9.60;3.60;;;;;;;;;;2614166;54;20390;-76
2024/01/16 09:22:57;;;;;;;4.90;3.90;;;;;;;;;;2614643;54;20990;-76
2024/01/16 09:28:28;;;;;;;5.37;4.20;;;;;;;;;;2614547;54;20435;-76
2024/01/16 09:33:58;;;;;;;5.40;3.43;;;;;;;;;;2615181;54;20493;-79
2024/01/16 09:39:30;;;;;;;5.37;3.10;;;;;;;;;;2614393;54;20378;-76
2024/01/16 09:48:28;;;;;;;7.40;3.53;;;;;;;;;;2614208;54;20383;-76
2024/01/16 09:53:58;;;;;;;10.03;5.00;;;;;;;;;;2614874;39;20800;-77
2024/01/16 09:59:29;;;;;;;4.90;3.70;;;;;;;;;;2614130;54;20370;-75
2024/01/16 10:04:59;;;;;;;10.53;6.00;;;;;;;;;;2615202;39;20737;-75
2024/01/16 10:10:29;;;;;;;4.53;4.10;;;;;;;;;;2615271;54;20416;-76
2024/01/16 10:15:59;;;;;;;10.67;3.37;;;;;;;;;;2613286;54;20382;-76
2024/01/16 10:21:32;;;;;;;7.43;4.53;;;;;;;;;;2614144;54;20366;-77
2024/01/16 10:27:03;;;;;;;9.47;5.37;;;;;;;;;;2614982;54;20908;-76
2024/01/16 10:32:37;;;;;;;6.43;3.90;;;;;;;;;;2614444;54;20379;-76
2024/01/16 10:38:06;;;;;;;8.10;4.60;;;;;;;;;;2614804;54;20373;-76
2024/01/16 10:43:36;;;;;;;3.53;3.23;;;;;;;;;;2613516;54;21305;-77
2024/01/16 10:49:06;;;;;;;4.20;3.10;;;;;;;;;;2613933;39;20720;-76
2024/01/16 10:54:38;;;;;;;4.23;3.80;;;;;;;;;;2613778;54;20416;-76
2024/01/16 11:00:10;;;;;;;8.43;4.90;;;;;;;;;;2614274;54;20373;-76
2024/01/16 11:05:40;;;;;;;12.90;5.57;;;;;;;;;;2613731;54;20358;-76
2024/01/16 11:11:10;;;;;;;6.60;6.00;;;;;;;;;;2614861;54;20519;-76
2024/01/16 11:16:41;;;;;;;9.33;5.80;;;;;;;;;;2613341;54;20544;-76
2024/01/16 11:22:11;;;;;;;7.70;6.60;;;;;;;;;;2612098;54;20451;-76
2024/01/16 11:27:42;;;;;;;8.73;5.87;;;;;;;;;;2612327;39;20793;-76
2024/01/16 11:33:30;;;;;;;8.70;5.37;;;;;;;;;;2613216;54;20355;-77
2024/01/16 11:39:00;;;;;;;5.83;5.23;;;;;;;;;;2614751;54;20399;-77
2024/01/16 11:50:37;;;;;;;7.73;5.43;;;;;;;;;;2612869;39;20634;-77
2024/01/16 11:56:10;;;;;;;10.20;6.43;;;;;;;;;;2612835;39;20789;-77
2024/01/16 12:01:42;;;;;;;6.43;5.80;;;;;;;;;;2612027;54;20490;-76
2024/01/16 12:07:12;;;;;;;7.27;6.20;;;;;;;;;;2615084;54;20391;-76
2024/01/16 12:12:42;;;;;;;4.83;4.43;;;;;;;;;;2613828;46;20385;-76
2024/01/16 12:18:18;;;;;;;8.17;6.60;;;;;;;;;;2612808;54;20511;-77
2024/01/16 12:23:48;;;;;;;11.33;6.30;;;;;;;;;;2612669;54;20377;-76
2024/01/16 12:29:18;;;;;;;7.23;6.27;;;;;;;;;;2612554;39;20848;-75
2024/01/16 12:34:49;;;;;;;11.67;7.83;;;;;;;;;;2611482;54;20487;-76
2024/01/16 12:40:18;;;;;;;8.67;6.40;;;;;;;;;;2609984;54;20430;-75
2024/01/16 12:52:14;;;;;;;11.90;8.50;;;;;;;;;;2613658;54;20408;-76
2024/01/16 12:54:59;;;;;;;6.60;6.20;;;;;;;;;;2613292;54;20432;-78
2024/01/16 12:57:25;;;;;;;9.00;7.30;;;;;;;;;;2613508;54;20961;-76
2024/01/16 13:02:58;;;;;;;13.03;9.13;;;;;;;;;;2611723;54;20432;-76
2024/01/16 13:08:28;;;;;;;10.20;8.40;;;;;;;;;;2612620;54;20480;-80
2024/01/16 13:14:03;;;;;;;9.80;5.70;;;;;;;;;;2612639;54;20342;-76
2024/01/16 13:19:33;;;;;;;12.80;8.70;;;;;;;;;;2611776;54;20467;-75
2024/01/16 13:25:05;;;;;;;10.23;7.80;;;;;;;;;;2612159;54;20382;-75
2024/01/16 13:30:35;;;;;;;8.87;6.60;;;;;;;;;;2612403;54;20439;-75
2024/01/16 13:36:04;;;;;;;10.10;7.80;;;;;;;;;;2611563;54;20379;-76
2024/01/16 13:41:34;;;;;;;8.20;7.40;;;;;;;;;;2613445;54;20990;-76
2024/01/16 13:50:45;;;;;;;20.50;14.80;;;;;;;;;;2613165;54;20378;-77
2024/01/16 13:56:14;;;;;;;17.60;12.53;;;;;;;;;;2613506;54;20398;-75
2024/01/16 14:01:44;;;;;;;8.57;6.57;;;;;;;;;;2612122;54;20348;-76
2024/01/16 14:07:14;;;;;;;7.50;6.97;;;;;;;;;;2613292;54;20427;-76
2024/01/16 14:12:45;;;;;;;7.40;6.80;;;;;;;;;;2614121;54;20419;-76
2024/01/16 14:18:14;;;;;;;9.50;8.77;;;;;;;;;;2612711;54;20391;-76
2024/01/16 14:23:44;;;;;;;7.63;7.03;;;;;;;;;;2613883;54;20358;-77
2024/01/16 14:29:15;;;;;;;11.57;7.67;;;;;;;;;;2613616;54;20415;-76
2024/01/16 14:34:45;;;;;;;14.80;7.97;;;;;;;;;;2614068;54;20488;-76
2024/01/16 14:46:03;;;;;;;12.03;7.70;;;;;;;;;;2612275;54;20358;-75
2024/01/16 14:51:33;;;;;;;8.97;6.93;;;;;;;;;;2613909;54;20387;-76
2024/01/16 14:57:04;;;;;;;9.80;8.80;;;;;;;;;;2613736;54;20894;-77
2024/01/16 15:02:34;;;;;;;11.47;8.10;;;;;;;;;;2612379;54;20371;-77
2024/01/16 15:08:03;;;;;;;9.90;7.07;;;;;;;;;;2613833;54;20403;-78
2024/01/16 15:13:33;;;;;;;7.37;6.67;;;;;;;;;;2612546;54;20411;-77
2024/01/16 15:19:03;;;;;;;9.93;6.93;;;;;;;;;;2613652;54;20955;-77
2024/01/16 15:24:32;;;;;;;13.40;7.20;;;;;;;;;;2612920;54;20485;-77
2024/01/16 15:30:04;;;;;;;13.73;7.93;;;;;;;;;;2613027;54;20378;-76
2024/01/16 15:35:33;;;;;;;7.40;5.17;;;;;;;;;;2613079;54;20402;-76
2024/01/16 15:41:03;;;;;;;10.87;9.73;;;;;;;;;;2612350;54;20511;-76
2024/01/16 15:52:41;;;;;;;11.20;9.17;;;;;;;;;;2614080;39;20794;-74
2024/01/16 15:55:25;;;;;;;6.90;5.27;;;;;;;;;;2613629;54;20411;-73
2024/01/16 16:00:55;;;;;;;7.60;6.93;;;;;;;;;;2613510;54;20382;-74
2024/01/16 16:06:24;;;;;;;9.47;8.13;;;;;;;;;;2613673;54;20354;-80
2024/01/16 16:11:54;;;;;;;9.40;7.90;;;;;;;;;;2614762;54;20366;-80
2024/01/16 16:17:24;;;;;;;17.30;13.57;;;;;;;;;;2614641;54;20426;-80
2024/01/16 16:22:54;;;;;;;9.10;8.20;;;;;;;;;;2614243;54;20406;-80
2024/01/16 16:28:24;;;;;;;14.47;9.20;;;;;;;;;;2613894;54;20399;-78
2024/01/16 16:33:53;;;;;;;11.40;10.20;;;;;;;;;;2613948;54;20404;-78
2024/01/16 16:39:23;;;;;;;29.73;16.70;;;;;;;;;;2614236;54;20370;-79
2024/01/16 16:44:54;;;;;;;10.63;8.83;;;;;;;;;;2613786;54;20419;-77
2024/01/16 16:50:23;;;;;;;9.97;9.03;;;;;;;;;;2613448;54;20379;-79
2024/01/16 16:55:53;;;;;;;28.70;11.87;;;;;;;;;;2613084;54;20547;-79
2024/01/16 17:01:22;;;;;;;21.87;17.97;;;;;;;;;;2612650;54;20370;-76
2024/01/16 17:06:54;;;;;;;13.90;11.30;;;;;;;;;;2612804;54;20363;-75
2024/01/16 17:12:24;;;;;;;18.13;12.60;;;;;;;;;;2613701;39;20807;-73
2024/01/16 17:17:54;;;;;;;21.00;11.90;;;;;;;;;;2614172;54;20965;-79
2024/01/16 17:20:39;;;;;;;28.70;11.27;;;;;;;;;;2614025;47;20423;-79
2024/01/16 17:23:05;;;;;;;17.10;10.80;;;;;;;;;;2614480;54;20398;-79
2024/01/16 17:28:34;;;;;;;7.90;7.13;;;;;;;;;;2614206;54;20412;-73
2024/01/16 17:34:05;;;;;;;12.43;7.77;;;;;;;;;;2614532;54;21074;-78
2024/01/16 17:39:34;;;;;;;18.80;12.57;;;;;;;;;;2612433;54;20325;-74
2024/01/16 17:45:03;;;;;;;11.50;9.80;;;;;;;;;;2611531;54;20385;-75
2024/01/16 17:50:35;;;;;;;14.83;11.57;;;;;;;;;;2612798;54;20410;-75
2024/01/16 17:59:43;;;;;;;26.07;17.20;;;;;;;;;;2613685;54;20438;-76
2024/01/16 18:05:16;;;;;;;16.60;10.53;;;;;;;;;;2613837;54;20467;-75
2024/01/16 18:10:49;;;;;;;16.70;12.30;;;;;;;;;;2612278;54;20369;-78
2024/01/16 18:16:19;;;;;;;13.30;11.67;;;;;;;;;;2611916;54;20906;-77
2024/01/16 18:21:50;;;;;;;13.93;10.00;;;;;;;;;;2613078;54;20367;-78
2024/01/16 18:27:20;;;;;;;16.67;10.10;;;;;;;;;;2612635;54;20384;-74
2024/01/16 18:32:50;;;;;;;12.77;10.33;;;;;;;;;;2612163;46;20479;-75
2024/01/16 18:38:19;;;;;;;16.10;12.97;;;;;;;;;;2610537;54;20974;-75
2024/01/16 18:43:51;;;;;;;12.07;8.93;;;;;;;;;;2613873;54;20382;-76
2024/01/16 18:49:21;;;;;;;13.20;9.80;;;;;;;;;;2613233;54;20949;-76
2024/01/16 18:54:50;;;;;;;14.77;9.67;;;;;;;;;;2613612;54;20950;-76
2024/01/16 19:00:22;;;;;;;15.90;10.60;;;;;;;;;;2611900;54;20497;-74
2024/01/16 19:05:56;;;;;;;11.77;10.57;;;;;;;;;;2613225;54;20418;-75
2024/01/16 19:11:25;;;;;;;12.10;10.87;;;;;;;;;;2612954;54;20420;-75
2024/01/16 19:16:55;;;;;;;15.27;10.83;;;;;;;;;;2613267;54;20374;-75
2024/01/16 19:22:24;;;;;;;16.83;8.93;;;;;;;;;;2612415;54;20402;-75
2024/01/16 19:27:54;;;;;;;10.47;9.43;;;;;;;;;;2609407;54;20408;-74
2024/01/16 19:33:24;;;;;;;13.07;10.47;;;;;;;;;;2613100;54;20504;-75
2024/01/16 19:38:54;;;;;;;15.63;11.20;;;;;;;;;;2610670;54;20396;-75
2024/01/16 19:44:24;;;;;;;17.10;10.33;;;;;;;;;;2612053;39;20776;-77
2024/01/16 19:49:54;;;;;;;14.63;11.20;;;;;;;;;;2612907;54;20391;-78
2024/01/16 20:01:31;;;;;;;15.07;9.67;;;;;;;;;;2614744;39;20943;-78
2024/01/16 20:07:02;;;;;;;13.23;10.10;;;;;;;;;;2613563;54;20338;-78
2024/01/16 20:12:32;;;;;;;16.20;10.80;;;;;;;;;;2614014;39;20767;-75
2024/01/16 20:18:02;;;;;;;13.73;9.30;;;;;;;;;;2613916;54;20366;-75
2024/01/16 20:23:32;;;;;;;13.77;9.33;;;;;;;;;;2613746;54;20338;-77
2024/01/16 20:29:01;;;;;;;16.80;9.90;;;;;;;;;;2615350;39;20763;-78
2024/01/16 20:34:33;;;;;;;15.37;8.60;;;;;;;;;;2614077;54;20387;-78
2024/01/16 20:40:07;;;;;;;15.27;8.97;;;;;;;;;;2613106;54;20386;-78
2024/01/16 20:45:36;;;;;;;11.33;8.57;;;;;;;;;;2614466;54;20850;-78
2024/01/16 20:51:07;;;;;;;9.30;8.43;;;;;;;;;;2613116;31;20893;-76
2024/01/16 21:00:18;;;;;;;10.23;9.17;;;;;;;;;;2612914;54;20423;-78
2024/01/16 21:05:48;;;;;;;24.53;9.80;;;;;;;;;;2611995;54;20362;-76
2024/01/16 21:11:18;;;;;;;11.03;8.60;;;;;;;;;;2613443;54;20426;-78
2024/01/16 21:16:48;;;;;;;10.60;9.03;;;;;;;;;;2612422;54;20373;-77
2024/01/16 21:22:17;;;;;;;13.47;9.20;;;;;;;;;;2610731;54;20399;-77
2024/01/16 21:27:47;;;;;;;11.43;8.10;;;;;;;;;;2611856;54;20464;-77
2024/01/16 21:33:17;;;;;;;14.40;10.90;;;;;;;;;;2612030;54;20370;-79
2024/01/16 21:38:46;;;;;;;15.07;8.50;;;;;;;;;;2612619;54;20397;-77
2024/01/16 21:44:16;;;;;;;12.80;8.73;;;;;;;;;;2613193;54;20370;-77
2024/01/16 21:49:46;;;;;;;11.80;8.50;;;;;;;;;;2612974;54;20379;-79
2024/01/16 21:55:18;;;;;;;12.90;8.70;;;;;;;;;;2612738;54;20412;-79
2024/01/16 22:00:50;;;;;;;17.27;9.70;;;;;;;;;;2613497;54;20417;-76
2024/01/16 22:06:20;;;;;;;11.97;8.50;;;;;;;;;;2613755;54;20399;-76
2024/01/16 22:11:49;;;;;;;13.23;9.33;;;;;;;;;;2613321;54;20367;-76
2024/01/16 22:17:21;;;;;;;9.37;7.70;;;;;;;;;;2613091;39;20732;-77
2024/01/16 22:22:50;;;;;;;13.30;10.17;;;;;;;;;;2614547;54;20407;-77
2024/01/16 22:28:19;;;;;;;13.97;9.70;;;;;;;;;;2613693;54;20338;-77
2024/01/16 22:33:49;;;;;;;10.07;9.00;;;;;;;;;;2613054;54;20379;-78
2024/01/16 22:39:23;;;;;;;9.13;7.67;;;;;;;;;;2613484;54;20384;-79
2024/01/16 22:44:53;;;;;;;8.53;5.23;;;;;;;;;;2614120;54;20419;-80
2024/01/16 22:50:23;;;;;;;27.83;9.50;;;;;;;;;;2613846;54;20423;-79
2024/01/16 22:55:53;;;;;;;10.23;9.13;;;;;;;;;;2615058;54;20391;-80
2024/01/16 23:05:03;;;;;;;11.20;8.73;;;;;;;;;;2613773;54;20402;-77
2024/01/16 23:10:33;;;;;;;9.17;8.17;;;;;;;;;;2613858;54;20499;-76
2024/01/16 23:16:03;;;;;;;9.30;8.30;;;;;;;;;;2613333;54;20492;-77
2024/01/16 23:21:33;;;;;;;18.77;9.97;;;;;;;;;;2613146;54;20387;-78
2024/01/16 23:27:02;;;;;;;13.73;9.70;;;;;;;;;;2614414;54;20486;-77
2024/01/16 23:32:32;;;;;;;17.13;11.63;;;;;;;;;;2614469;54;20361;-78
2024/01/16 23:38:02;;;;;;;10.87;9.23;;;;;;;;;;2615138;54;20385;-78
2024/01/16 23:43:33;;;;;;;13.27;9.43;;;;;;;;;;2614374;54;20524;-78
2024/01/16 23:49:03;;;;;;;14.90;9.10;;;;;;;;;;2614229;54;21045;-79
2024/01/16 23:54:33;;;;;;;12.60;9.97;;;;;;;;;;2614179;54;20355;-79
